Time;durP1;ratioP1;P1;durP2;ratioP2;P2;SDS_P1;SDS_P2;PMS_P1;PMS_P2;Temp;Humidity;BMP_temperature;BMP_pressure;BME280_temperature;BME280_humidity;BME280_pressure;Samples;Min_cycle;Max_cycle;Signal;HPM_P1;HPM_P2
2022/04/24 00:01:39;;;;;;;9.18;6.40;;;;;;;10.39;100.00;98877.81;6214050;23;20390;-86
2022/04/24 00:04:04;;;;;;;8.40;6.30;;;;;;;10.40;100.00;98863.47;6214432;23;20012;-86
2022/04/24 00:06:34;;;;;;;7.22;5.90;;;;;;;10.41;100.00;98881.66;6214333;23;20088;-86
2022/04/24 00:09:00;;;;;;;10.65;6.15;;;;;;;10.43;100.00;98875.66;6237723;23;20016;-86
2022/04/24 00:11:26;;;;;;;7.53;6.05;;;;;;;10.41;100.00;98869.81;6214671;23;20339;-83
2022/04/24 00:13:51;;;;;;;8.18;5.85;;;;;;;10.44;100.00;98869.63;6212515;23;20016;-86
2022/04/24 00:16:17;;;;;;;8.40;5.40;;;;;;;10.37;100.00;98858.09;6214886;23;20019;-86
2022/04/24 00:18:42;;;;;;;7.28;5.00;;;;;;;10.39;100.00;98866.75;6213945;23;20008;-86
2022/04/24 00:21:08;;;;;;;6.78;5.30;;;;;;;10.40;100.00;98854.41;6214746;23;20082;-86
2022/04/24 00:23:33;;;;;;;5.68;5.07;;;;;;;10.37;100.00;98863.66;6213787;23;20036;-86
2022/04/24 00:26:00;;;;;;;7.63;4.75;;;;;;;10.36;100.00;98868.41;6213029;23;20027;-86
2022/04/24 00:28:26;;;;;;;8.52;5.10;;;;;;;10.36;100.00;98870.41;6213285;23;20342;-86
2022/04/24 00:30:51;;;;;;;6.57;5.15;;;;;;;10.32;100.00;98851.19;6214144;23;20016;-86
2022/04/24 00:33:17;;;;;;;5.75;5.00;;;;;;;10.27;100.00;98849.03;6214239;23;20001;-86
2022/04/24 00:35:43;;;;;;;6.15;5.40;;;;;;;10.33;100.00;98854.72;6213382;23;20090;-83
2022/04/24 00:38:09;;;;;;;7.22;5.25;;;;;;;10.31;100.00;98843.34;6213351;23;20035;-83
2022/04/24 00:40:34;;;;;;;7.35;5.30;;;;;;;10.29;100.00;98846.56;6214254;23;20097;-83
2022/04/24 00:43:00;;;;;;;7.43;5.30;;;;;;;10.31;100.00;98865.50;6187625;23;20020;-83
2022/04/24 00:45:45;;;;;;;8.20;5.38;;;;;;;10.27;100.00;98860.88;6214176;23;20008;-83
2022/04/24 00:48:11;;;;;;;6.03;5.30;;;;;;;10.25;100.00;98857.81;6214106;23;20012;-83
2022/04/24 00:50:37;;;;;;;6.80;5.70;;;;;;;10.19;100.00;98864.44;6214147;23;20005;-83
2022/04/24 00:53:03;;;;;;;6.57;5.15;;;;;;;10.12;100.00;98859.94;6212527;23;20012;-83
2022/04/24 00:55:29;;;;;;;7.63;5.80;;;;;;;10.14;100.00;98857.50;6214145;23;20065;-83
2022/04/24 00:57:55;;;;;;;7.10;5.75;;;;;;;10.11;100.00;98866.69;6212225;23;20344;-83
2022/04/24 01:03:09;;;;;;;9.25;6.07;;;;;;;10.15;100.00;98859.03;6135311;23;20036;-80
2022/04/24 01:05:35;;;;;;;6.10;5.50;;;;;;;10.09;100.00;98844.25;6153233;23;20014;-82
2022/04/24 01:08:00;;;;;;;7.00;6.05;;;;;;;10.02;100.00;98839.03;6127182;23;20096;-82
2022/04/24 01:10:26;;;;;;;6.65;5.75;;;;;;;10.04;100.00;98844.84;6153904;23;20032;-82
2022/04/24 01:12:51;;;;;;;7.60;6.15;;;;;;;10.00;100.00;98838.69;6153573;23;20017;-82
2022/04/24 01:15:17;;;;;;;6.63;5.90;;;;;;;10.06;100.00;98847.94;6128226;23;20014;-82
2022/04/24 01:17:43;;;;;;;7.53;5.75;;;;;;;10.08;100.00;98842.69;6153413;23;20024;-81
2022/04/24 01:20:09;;;;;;;7.28;5.88;;;;;;;10.10;100.00;98848.56;6128171;23;20077;-81
2022/04/24 01:22:34;;;;;;;5.90;5.07;;;;;;;10.19;100.00;98854.09;6126925;23;20006;-82
2022/04/24 01:25:00;;;;;;;8.80;5.70;;;;;;;10.24;100.00;98841.63;6153596;23;20018;-81
2022/04/24 01:27:26;;;;;;;6.97;5.65;;;;;;;10.13;100.00;98828.22;6153555;23;20029;-81
2022/04/24 01:29:51;;;;;;;8.57;5.70;;;;;;;10.23;100.00;98829.78;6153755;23;20470;-82
2022/04/24 01:32:17;;;;;;;5.90;5.07;;;;;;;10.23;100.00;98831.81;6153154;23;20017;-81
2022/04/24 01:34:42;;;;;;;7.45;5.55;;;;;;;10.19;100.00;98840.25;6153701;23;20043;-81
2022/04/24 01:37:08;;;;;;;6.35;5.45;;;;;;;10.24;100.00;98839.63;6153959;23;20077;-82
2022/04/24 01:39:33;;;;;;;7.70;5.20;;;;;;;10.23;100.00;98832.56;6127527;23;20013;-82
2022/04/24 01:41:59;;;;;;;6.82;4.90;;;;;;;10.23;100.00;98829.03;6153109;23;20553;-82
2022/04/24 01:44:24;;;;;;;7.13;5.30;;;;;;;10.24;100.00;98828.56;6126814;23;20044;-81
2022/04/24 01:46:50;;;;;;;6.82;5.22;;;;;;;10.24;100.00;98827.78;6151573;23;20080;-81
2022/04/24 01:49:15;;;;;;;6.50;5.30;;;;;;;10.23;100.00;98815.91;6153334;23;20013;-82
2022/04/24 01:51:40;;;;;;;6.80;5.97;;;;;;;10.24;100.00;98817.47;6153482;23;20013;-81
2022/04/24 01:54:06;;;;;;;8.32;5.25;;;;;;;10.18;100.00;98804.72;6153259;23;20010;-81
2022/04/24 01:56:31;;;;;;;5.80;4.97;;;;;;;10.23;100.00;98807.59;6153739;23;20079;-81
2022/04/24 01:58:57;;;;;;;5.82;5.15;;;;;;;10.21;100.00;98812.09;6153157;23;20006;-82
2022/04/24 02:01:22;;;;;;;7.03;5.32;;;;;;;10.17;100.00;98808.72;6127411;23;20455;-81
2022/04/24 02:03:48;;;;;;;7.78;5.50;;;;;;;10.17;100.00;98822.56;6152156;23;20104;-81
2022/04/24 02:06:14;;;;;;;8.50;6.07;;;;;;;10.10;100.00;98820.84;6153490;23;20101;-81
2022/04/24 02:08:39;;;;;;;8.07;5.72;;;;;;;10.01;100.00;98801.47;6152704;23;20450;-82
2022/04/24 02:11:06;;;;;;;6.05;5.03;;;;;;;10.06;100.00;98827.78;6153149;23;20016;-81
2022/04/24 02:13:33;;;;;;;6.70;5.20;;;;;;;10.00;100.00;98819.31;6153381;23;20017;-82
2022/04/24 02:15:58;;;;;;;7.95;5.97;;;;;;;10.04;100.00;98824.69;6102502;23;20017;-81
2022/04/24 02:18:24;;;;;;;6.68;5.65;;;;;;;10.06;100.00;98830.56;6153217;23;20013;-82
2022/04/24 02:20:49;;;;;;;6.80;5.32;;;;;;;10.04;100.00;98836.53;6152187;23;20336;-81
2022/04/24 02:23:15;;;;;;;7.70;5.60;;;;;;;10.06;100.00;98839.63;6127085;23;20028;-81
2022/04/24 02:25:40;;;;;;;6.70;5.30;;;;;;;10.08;100.00;98826.06;6153512;23;20064;-81
2022/04/24 02:28:06;;;;;;;6.50;5.28;;;;;;;10.16;100.00;98832.09;6152649;23;20013;-82
2022/04/24 02:30:32;;;;;;;5.68;4.97;;;;;;;10.16;100.00;98821.78;6153327;23;20440;-81
2022/04/24 02:32:59;;;;;;;8.75;5.47;;;;;;;10.20;100.00;98816.84;6153026;23;20017;-82
2022/04/24 02:35:26;;;;;;;6.75;5.60;;;;;;;10.22;100.00;98811.63;6127310;23;20039;-90
2022/04/24 02:37:52;;;;;;;6.18;5.15;;;;;;;10.25;100.00;98794.06;6153021;23;20025;-89
2022/04/24 02:40:21;;;;;;;5.32;4.82;;;;;;;10.17;100.00;98811.47;6153449;23;20006;-90
2022/04/24 02:42:48;;;;;;;8.18;5.53;;;;;;;10.16;100.00;98805.16;6152843;23;20013;-90
2022/04/24 02:45:14;;;;;;;7.35;5.35;;;;;;;10.25;100.00;98819.00;6153301;23;20068;-91
2022/04/24 02:47:39;;;;;;;7.05;5.13;;;;;;;10.26;100.00;98803.94;6152524;23;20013;-89
2022/04/24 02:50:05;;;;;;;5.97;5.22;;;;;;;10.27;100.00;98793.63;6152212;23;20013;-89
2022/04/24 02:52:31;;;;;;;7.90;5.93;;;;;;;10.33;100.00;98807.59;6153068;23;20024;-90
2022/04/24 02:54:56;;;;;;;9.25;5.50;;;;;;;10.33;100.00;98811.16;6102036;23;20104;-81
2022/04/24 02:57:22;;;;;;;6.53;4.93;;;;;;;10.34;100.00;98815.47;6152666;23;20049;-82
2022/04/24 02:59:49;;;;;;;6.78;5.70;;;;;;;10.29;100.00;98805.75;6126907;23;20064;-82
2022/04/24 03:02:16;;;;;;;6.30;5.10;;;;;;;10.31;100.00;98810.84;6152106;23;20109;-82
2022/04/24 03:04:41;;;;;;;7.38;5.18;;;;;;;10.23;100.00;98796.53;6125540;23;20013;-82
2022/04/24 03:07:07;;;;;;;7.03;5.65;;;;;;;10.28;100.00;98795.91;6151576;23;20013;-82
2022/04/24 03:09:33;;;;;;;7.15;5.07;;;;;;;10.27;100.00;98799.16;6151902;23;20355;-82
2022/04/24 03:11:59;;;;;;;6.53;5.15;;;;;;;10.23;100.00;98802.06;6125427;23;20335;-82
2022/04/24 03:14:24;;;;;;;6.28;5.40;;;;;;;10.13;100.00;98791.44;6151732;23;20040;-82
2022/04/24 03:16:50;;;;;;;7.47;5.35;;;;;;;10.12;100.00;98790.66;6125331;23;20076;-82
2022/04/24 03:19:15;;;;;;;5.90;5.22;;;;;;;10.08;100.00;98792.81;6125703;23;20134;-81
2022/04/24 03:21:41;;;;;;;6.68;5.80;;;;;;;9.95;100.00;98789.44;6151036;23;20076;-81
2022/04/24 03:24:07;;;;;;;5.78;5.15;;;;;;;9.91;100.00;98783.28;6150636;23;20013;-82
2022/04/24 03:26:32;;;;;;;8.23;5.75;;;;;;;9.93;100.00;98797.47;6151337;23;20020;-82
2022/04/24 03:28:58;;;;;;;6.47;5.40;;;;;;;9.88;100.00;98798.06;6124201;23;20092;-81
2022/04/24 03:31:24;;;;;;;8.32;5.20;;;;;;;9.77;100.00;98789.47;6152243;23;20068;-81
2022/04/24 03:33:52;;;;;;;8.02;5.68;;;;;;;9.70;100.00;98789.78;6126132;23;20025;-81
2022/04/24 03:36:18;;;;;;;6.25;5.43;;;;;;;9.64;100.00;98791.59;6152594;23;20010;-81
2022/04/24 03:38:43;;;;;;;6.90;5.68;;;;;;;9.60;100.00;98796.53;6152465;23;20459;-82
2022/04/24 03:41:09;;;;;;;9.38;5.60;;;;;;;9.53;100.00;98788.53;6126367;23;20089;-82
2022/04/24 03:43:34;;;;;;;6.78;6.07;;;;;;;9.55;100.00;98789.59;6152046;23;20009;-81
2022/04/24 03:46:00;;;;;;;7.03;5.55;;;;;;;9.48;100.00;98781.59;6152793;23;20325;-82
2022/04/24 03:48:25;;;;;;;7.95;5.80;;;;;;;9.52;100.00;98789.75;6152756;23;20491;-82
2022/04/24 03:50:51;;;;;;;6.43;5.25;;;;;;;9.46;100.00;98797.13;6125946;23;20013;-82
2022/04/24 03:53:18;;;;;;;9.20;5.45;;;;;;;9.42;100.00;98807.59;6102020;23;20024;-90
2022/04/24 03:55:45;;;;;;;7.93;6.05;;;;;;;9.38;100.00;98799.44;6152838;23;20033;-89
2022/04/24 03:58:11;;;;;;;8.80;5.38;;;;;;;9.35;100.00;98795.56;6152819;23;20006;-90
2022/04/24 04:00:37;;;;;;;7.00;5.82;;;;;;;9.28;100.00;98798.63;6152544;23;20009;-88
2022/04/24 04:03:02;;;;;;;7.15;5.50;;;;;;;9.22;100.00;98794.91;6108790;23;293664;-89
2022/04/24 04:05:28;;;;;;;5.70;5.10;;;;;;;9.14;100.00;98782.59;6117720;23;20009;-89
2022/04/24 04:07:53;;;;;;;6.53;5.00;;;;;;;9.19;100.00;98795.06;6154188;23;20096;-89
2022/04/24 04:10:19;;;;;;;6.93;5.03;;;;;;;9.10;100.00;98789.53;6154731;23;20017;-90
2022/04/24 04:12:44;;;;;;;6.50;5.18;;;;;;;9.12;100.00;98790.59;6128323;23;20017;-89
2022/04/24 04:15:10;;;;;;;6.35;5.13;;;;;;;9.08;100.00;98789.97;6153733;23;20046;-89
2022/04/24 04:17:36;;;;;;;6.55;5.25;;;;;;;9.07;100.00;98791.19;6128257;23;20006;-89
2022/04/24 04:20:01;;;;;;;7.15;5.43;;;;;;;9.09;100.00;98808.13;6128205;23;20078;-89
2022/04/24 04:22:27;;;;;;;8.30;5.55;;;;;;;9.09;100.00;98807.34;6154215;23;20045;-90
2022/04/24 04:24:52;;;;;;;6.93;5.20;;;;;;;9.08;100.00;98811.34;6153930;23;20400;-89
2022/04/24 04:27:19;;;;;;;6.05;4.90;;;;;;;9.09;100.00;98808.13;6154408;23;20010;-89
2022/04/24 04:29:45;;;;;;;6.47;4.53;;;;;;;9.10;100.00;98804.09;6153800;23;20013;-89
2022/04/24 04:32:10;;;;;;;5.65;4.60;;;;;;;9.09;100.00;98802.59;6153574;23;20020;-89
2022/04/24 04:34:36;;;;;;;6.88;4.63;;;;;;;9.16;100.00;98807.84;6153631;23;20014;-90
2022/04/24 04:37:01;;;;;;;5.68;4.65;;;;;;;9.14;100.00;98792.94;6153591;23;20440;-89
2022/04/24 04:39:27;;;;;;;6.97;5.00;;;;;;;9.13;100.00;98780.31;6127971;23;20005;-89
2022/04/24 04:41:52;;;;;;;7.43;4.90;;;;;;;9.21;100.00;98798.16;6153314;23;20017;-89
2022/04/24 04:44:18;;;;;;;7.50;5.10;;;;;;;9.22;100.00;98794.91;6153509;23;20021;-89
2022/04/24 04:46:43;;;;;;;5.80;4.80;;;;;;;9.31;100.00;98785.88;6128005;23;19998;-91
2022/04/24 04:49:12;;;;;;;6.80;4.65;;;;;;;9.36;100.00;98777.75;6153557;23;20017;-89
2022/04/24 04:51:37;;;;;;;5.55;4.70;;;;;;;9.39;100.00;98781.59;6153669;23;20036;-89
2022/04/24 04:54:03;;;;;;;6.88;4.97;;;;;;;9.44;100.00;98774.66;6127861;23;20327;-89
2022/04/24 04:56:28;;;;;;;6.22;5.00;;;;;;;9.48;100.00;98773.28;6153699;23;20462;-88
2022/04/24 04:58:54;;;;;;;6.88;4.60;;;;;;;9.51;100.00;98782.66;6103318;23;20391;-89
2022/04/24 05:01:19;;;;;;;6.03;4.75;;;;;;;9.60;100.00;98782.69;6153338;23;20002;-89
2022/04/24 05:03:45;;;;;;;6.28;4.70;;;;;;;9.67;100.00;98779.59;6153340;23;20407;-89
2022/04/24 05:06:10;;;;;;;6.28;4.40;;;;;;;9.65;100.00;98768.22;6153277;23;20014;-89
2022/04/24 05:08:36;;;;;;;5.55;4.47;;;;;;;9.76;100.00;98772.06;6153225;23;20013;-90
2022/04/24 05:11:01;;;;;;;5.65;4.38;;;;;;;9.84;100.00;98762.22;6152478;23;20436;-88
2022/04/24 05:13:27;;;;;;;6.97;4.88;;;;;;;9.92;100.00;98771.00;6152396;23;20041;-89
2022/04/24 05:15:53;;;;;;;5.93;4.65;;;;;;;9.95;100.00;98770.06;6152020;23;20099;-88
2022/04/24 05:18:19;;;;;;;5.00;3.90;;;;;;;9.98;100.00;98760.84;6101889;23;20009;-89
2022/04/24 05:20:45;;;;;;;7.50;4.45;;;;;;;10.17;100.00;98767.13;6152152;23;20080;-89
2022/04/24 05:23:10;;;;;;;4.78;3.67;;;;;;;10.21;100.00;98768.53;6151612;23;20014;-89
2022/04/24 05:25:39;;;;;;;6.50;4.45;;;;;;;10.38;100.00;98770.94;6126457;23;20474;-88
2022/04/24 05:28:05;;;;;;;5.20;4.40;;;;;;;10.38;100.00;98759.84;6151989;23;20099;-89
2022/04/24 05:30:31;;;;;;;5.32;4.30;;;;;;;10.58;100.00;98757.31;6151972;23;20005;-89
2022/04/24 05:32:56;;;;;;;6.00;4.00;;;;;;;10.68;100.00;98759.59;6125919;23;20013;-88
2022/04/24 05:35:22;;;;;;;5.28;4.20;;;;;;;10.71;100.00;98749.59;6101750;23;20029;-89
2022/04/24 05:37:48;;;;;;;5.28;3.80;;;;;;;10.81;100.00;98753.84;6152031;23;20447;-89
2022/04/24 05:40:15;;;;;;;7.15;3.60;;;;;;;10.92;100.00;98754.09;6126387;23;20753;-87
2022/04/24 05:42:53;;;;;;;6.07;3.83;;;;;;;11.11;100.00;98752.00;6152317;23;20071;-90
2022/04/24 05:45:22;;;;;;;5.90;3.78;;;;;;;11.20;100.00;98749.91;6152245;23;20020;-89
2022/04/24 05:47:49;;;;;;;6.28;3.85;;;;;;;11.32;100.00;98741.84;6125919;23;20013;-81
2022/04/24 05:50:15;;;;;;;5.53;3.50;;;;;;;11.55;100.00;98772.38;6126227;23;20016;-81
2022/04/24 05:52:41;;;;;;;6.75;3.75;;;;;;;11.72;100.00;98761.63;6125492;23;20454;-81
2022/04/24 05:55:07;;;;;;;4.97;3.42;;;;;;;11.73;100.00;98765.91;6151512;23;20017;-81
2022/04/24 05:57:34;;;;;;;5.43;3.63;;;;;;;11.92;100.00;98758.97;6126251;23;20092;-82
2022/04/24 06:00:00;;;;;;;4.78;3.70;;;;;;;12.09;100.00;98760.03;6152195;23;20106;-83
